Terminal Aerodrome Forecast
Issued by NWS Cleveland, OH

Home | Current Version | Previous Version | Graphics & Text | Print | Product List | Glossary On
Versions: 1 2 3 4 5 6 7 8 9 10 11 12 13 14 15 16 17 18 19 20 21 22
000
FTUS41 KCLE 092340
TAFMFD
TAF
KMFD 092340Z 1000/1024 25006KT 3SM -SHSN SCT008 OVC015
      TEMPO 1000/1004 1 1/2SM -SHSN OVC008
     FM100400 29010KT P6SM VCSH SCT008 OVC015
     FM101100 26010KT P6SM OVC015
     FM101600 24013KT P6SM SCT015 OVC025=

USA.gov is the U.S. government's official web portal to all federal, state and local government web resources and services.